sensor_id;sensor_type;location;lat;lon;timestamp;temperature;humidity
16767;DHT22;8501;49.926;8.404;2022-12-11T00:00:16;-1.00;99.90
16767;DHT22;8501;49.926;8.404;2022-12-11T00:02:45;-1.00;99.90
16767;DHT22;8501;49.926;8.404;2022-12-11T00:05:11;-0.90;99.90
16767;DHT22;8501;49.926;8.404;2022-12-11T00:07:36;-1.00;99.90
16767;DHT22;8501;49.926;8.404;2022-12-11T00:10:03;-1.10;99.90
16767;DHT22;8501;49.926;8.404;2022-12-11T00:12:30;-1.00;99.90
16767;DHT22;8501;49.926;8.404;2022-12-11T00:14:55;-0.90;99.90
16767;DHT22;8501;49.926;8.404;2022-12-11T00:17:21;-0.90;99.90
16767;DHT22;8501;49.926;8.404;2022-12-11T00:19:47;-1.00;99.90
16767;DHT22;8501;49.926;8.404;2022-12-11T00:22:12;-0.90;99.90
16767;DHT22;8501;49.926;8.404;2022-12-11T00:24:38;-0.90;99.90
16767;DHT22;8501;49.926;8.404;2022-12-11T00:27:04;-0.90;99.90
16767;DHT22;8501;49.926;8.404;2022-12-11T00:29:29;-0.80;99.90
16767;DHT22;8501;49.926;8.404;2022-12-11T00:31:55;-0.80;99.90
16767;DHT22;8501;49.926;8.404;2022-12-11T00:34:20;-0.80;99.90
16767;DHT22;8501;49.926;8.404;2022-12-11T00:36:46;-0.70;99.90
16767;DHT22;8501;49.926;8.404;2022-12-11T00:39:11;-0.70;99.90
16767;DHT22;8501;49.926;8.404;2022-12-11T00:41:37;-0.80;99.90
16767;DHT22;8501;49.926;8.404;2022-12-11T00:44:03;-0.70;99.90
16767;DHT22;8501;49.926;8.404;2022-12-11T00:46:29;-0.60;99.90
16767;DHT22;8501;49.926;8.404;2022-12-11T00:48:55;-0.70;99.90
16767;DHT22;8501;49.926;8.404;2022-12-11T00:51:20;-0.20;99.90
16767;DHT22;8501;49.926;8.404;2022-12-11T00:53:46;-0.70;99.90
16767;DHT22;8501;49.926;8.404;2022-12-11T00:56:17;-1.00;99.90
16767;DHT22;8501;49.926;8.404;2022-12-11T00:58:44;-0.70;99.90
16767;DHT22;8501;49.926;8.404;2022-12-11T01:01:17;-0.50;99.90
16767;DHT22;8501;49.926;8.404;2022-12-11T01:03:43;-0.70;99.90
16767;DHT22;8501;49.926;8.404;2022-12-11T01:06:16;-0.70;99.90
16767;DHT22;8501;49.926;8.404;2022-12-11T01:08:43;-0.60;99.90
16767;DHT22;8501;49.926;8.404;2022-12-11T01:11:11;-0.60;99.90
16767;DHT22;8501;49.926;8.404;2022-12-11T01:13:38;-0.50;99.90
16767;DHT22;8501;49.926;8.404;2022-12-11T01:16:09;-0.50;99.90
16767;DHT22;8501;49.926;8.404;2022-12-11T01:18:35;-0.50;99.90
16767;DHT22;8501;49.926;8.404;2022-12-11T01:21:09;-0.60;99.90
16767;DHT22;8501;49.926;8.404;2022-12-11T01:23:35;-0.50;99.90
16767;DHT22;8501;49.926;8.404;2022-12-11T01:26:06;-0.50;99.90
16767;DHT22;8501;49.926;8.404;2022-12-11T01:28:32;-0.50;99.90
16767;DHT22;8501;49.926;8.404;2022-12-11T01:31:01;-0.50;99.90
16767;DHT22;8501;49.926;8.404;2022-12-11T01:33:27;-0.50;99.90
16767;DHT22;8501;49.926;8.404;2022-12-11T01:35:53;-0.50;99.90
16767;DHT22;8501;49.926;8.404;2022-12-11T01:38:19;-0.50;99.90
16767;DHT22;8501;49.926;8.404;2022-12-11T01:40:49;-0.50;99.90
16767;DHT22;8501;49.926;8.404;2022-12-11T01:43:15;-0.50;99.90
16767;DHT22;8501;49.926;8.404;2022-12-11T01:45:44;-0.50;99.90
16767;DHT22;8501;49.926;8.404;2022-12-11T01:48:15;-0.50;99.90
16767;DHT22;8501;49.926;8.404;2022-12-11T01:50:56;-0.50;99.90
16767;DHT22;8501;49.926;8.404;2022-12-11T01:53:28;-0.50;99.90
16767;DHT22;8501;49.926;8.404;2022-12-11T01:55:58;-0.50;99.90
16767;DHT22;8501;49.926;8.404;2022-12-11T01:58:27;-0.40;99.90
16767;DHT22;8501;49.926;8.404;2022-12-11T02:00:55;-0.40;99.90
16767;DHT22;8501;49.926;8.404;2022-12-11T02:03:21;-0.40;99.90
16767;DHT22;8501;49.926;8.404;2022-12-11T02:05:47;-0.40;99.90
16767;DHT22;8501;49.926;8.404;2022-12-11T02:08:14;-0.40;99.90
16767;DHT22;8501;49.926;8.404;2022-12-11T02:13:42;-0.40;99.90
16767;DHT22;8501;49.926;8.404;2022-12-11T02:16:18;-0.40;99.90
16767;DHT22;8501;49.926;8.404;2022-12-11T02:18:54;-0.30;99.90
16767;DHT22;8501;49.926;8.404;2022-12-11T02:21:25;-0.30;99.90
16767;DHT22;8501;49.926;8.404;2022-12-11T02:24:05;-0.30;99.90
16767;DHT22;8501;49.926;8.404;2022-12-11T02:29:34;-0.20;99.90
16767;DHT22;8501;49.926;8.404;2022-12-11T02:32:12;-0.20;99.90
16767;DHT22;8501;49.926;8.404;2022-12-11T02:34:43;-0.10;99.90
16767;DHT22;8501;49.926;8.404;2022-12-11T02:37:15;-0.10;99.90
16767;DHT22;8501;49.926;8.404;2022-12-11T02:39:44;-0.10;99.90
16767;DHT22;8501;49.926;8.404;2022-12-11T02:42:12;0.00;99.90
16767;DHT22;8501;49.926;8.404;2022-12-11T02:44:39;0.00;99.90
16767;DHT22;8501;49.926;8.404;2022-12-11T02:47:08;0.10;99.90
16767;DHT22;8501;49.926;8.404;2022-12-11T02:49:35;-0.20;99.90
16767;DHT22;8501;49.926;8.404;2022-12-11T02:52:03;-0.30;99.90
16767;DHT22;8501;49.926;8.404;2022-12-11T02:54:32;-0.30;99.90
16767;DHT22;8501;49.926;8.404;2022-12-11T02:57:15;-0.40;99.90
16767;DHT22;8501;49.926;8.404;2022-12-11T02:59:43;-0.30;99.90
16767;DHT22;8501;49.926;8.404;2022-12-11T03:02:11;-0.40;99.90
16767;DHT22;8501;49.926;8.404;2022-12-11T03:04:38;-0.40;99.90
16767;DHT22;8501;49.926;8.404;2022-12-11T03:07:09;-0.30;99.90
16767;DHT22;8501;49.926;8.404;2022-12-11T03:09:41;-0.40;99.90
16767;DHT22;8501;49.926;8.404;2022-12-11T03:12:08;-0.40;99.90
16767;DHT22;8501;49.926;8.404;2022-12-11T03:14:36;-0.40;99.90
16767;DHT22;8501;49.926;8.404;2022-12-11T03:17:21;-0.30;99.90
16767;DHT22;8501;49.926;8.404;2022-12-11T03:20:00;-0.30;99.90
16767;DHT22;8501;49.926;8.404;2022-12-11T03:22:36;-0.30;99.90
16767;DHT22;8501;49.926;8.404;2022-12-11T03:25:08;-0.30;99.90
16767;DHT22;8501;49.926;8.404;2022-12-11T03:27:53;-0.20;99.90
16767;DHT22;8501;49.926;8.404;2022-12-11T03:30:23;-0.20;99.90
16767;DHT22;8501;49.926;8.404;2022-12-11T03:32:54;-0.20;99.90
16767;DHT22;8501;49.926;8.404;2022-12-11T03:35:32;-0.30;99.90
16767;DHT22;8501;49.926;8.404;2022-12-11T03:38:11;-0.30;99.90
16767;DHT22;8501;49.926;8.404;2022-12-11T03:40:39;-0.30;99.90
16767;DHT22;8501;49.926;8.404;2022-12-11T03:43:06;-0.30;99.90
16767;DHT22;8501;49.926;8.404;2022-12-11T03:45:32;-0.30;99.90
16767;DHT22;8501;49.926;8.404;2022-12-11T03:48:00;-0.40;99.90
16767;DHT22;8501;49.926;8.404;2022-12-11T03:50:29;-0.40;99.90
16767;DHT22;8501;49.926;8.404;2022-12-11T03:52:56;-0.30;99.90
16767;DHT22;8501;49.926;8.404;2022-12-11T03:55:22;-0.30;99.90
16767;DHT22;8501;49.926;8.404;2022-12-11T03:57:49;-0.30;99.90
16767;DHT22;8501;49.926;8.404;2022-12-11T04:00:17;-0.40;99.90
16767;DHT22;8501;49.926;8.404;2022-12-11T04:02:44;-0.40;99.90
16767;DHT22;8501;49.926;8.404;2022-12-11T04:05:10;-0.40;99.90
16767;DHT22;8501;49.926;8.404;2022-12-11T04:07:36;-0.40;99.90
16767;DHT22;8501;49.926;8.404;2022-12-11T04:10:03;-0.40;99.90
16767;DHT22;8501;49.926;8.404;2022-12-11T04:12:29;-0.30;99.90
16767;DHT22;8501;49.926;8.404;2022-12-11T04:14:54;-0.30;99.90
16767;DHT22;8501;49.926;8.404;2022-12-11T04:17:36;-0.20;99.90
16767;DHT22;8501;49.926;8.404;2022-12-11T04:20:21;-0.30;99.90
16767;DHT22;8501;49.926;8.404;2022-12-11T04:23:21;-0.30;99.90
16767;DHT22;8501;49.926;8.404;2022-12-11T04:26:11;-0.30;99.90
16767;DHT22;8501;49.926;8.404;2022-12-11T04:28:38;-0.30;99.90
16767;DHT22;8501;49.926;8.404;2022-12-11T04:31:04;-0.30;99.90
16767;DHT22;8501;49.926;8.404;2022-12-11T04:33:30;-0.30;99.90
16767;DHT22;8501;49.926;8.404;2022-12-11T04:35:57;-0.30;99.90
16767;DHT22;8501;49.926;8.404;2022-12-11T04:38:23;-0.30;99.90
16767;DHT22;8501;49.926;8.404;2022-12-11T04:40:48;-0.30;99.90
16767;DHT22;8501;49.926;8.404;2022-12-11T04:43:14;-0.30;99.90
16767;DHT22;8501;49.926;8.404;2022-12-11T04:45:39;-0.30;99.90
16767;DHT22;8501;49.926;8.404;2022-12-11T04:48:05;-0.30;99.90
16767;DHT22;8501;49.926;8.404;2022-12-11T04:50:31;-0.30;99.90
16767;DHT22;8501;49.926;8.404;2022-12-11T04:52:56;-0.30;99.90
16767;DHT22;8501;49.926;8.404;2022-12-11T04:55:23;-0.30;99.90
16767;DHT22;8501;49.926;8.404;2022-12-11T04:57:48;-0.30;99.90
16767;DHT22;8501;49.926;8.404;2022-12-11T05:00:14;-0.30;99.90
16767;DHT22;8501;49.926;8.404;2022-12-11T05:02:41;-0.20;99.90
16767;DHT22;8501;49.926;8.404;2022-12-11T05:05:08;-0.30;99.90
16767;DHT22;8501;49.926;8.404;2022-12-11T05:07:35;-0.20;99.90
16767;DHT22;8501;49.926;8.404;2022-12-11T05:10:00;-0.30;99.90
16767;DHT22;8501;49.926;8.404;2022-12-11T05:12:26;-0.30;99.90
16767;DHT22;8501;49.926;8.404;2022-12-11T05:14:53;-0.20;99.90
16767;DHT22;8501;49.926;8.404;2022-12-11T05:17:19;-0.20;99.90
16767;DHT22;8501;49.926;8.404;2022-12-11T05:19:49;-0.30;99.90
16767;DHT22;8501;49.926;8.404;2022-12-11T05:22:16;-0.40;99.90
16767;DHT22;8501;49.926;8.404;2022-12-11T05:24:41;-0.40;99.90
16767;DHT22;8501;49.926;8.404;2022-12-11T05:27:07;-0.30;99.90
16767;DHT22;8501;49.926;8.404;2022-12-11T05:29:33;-0.30;99.90
16767;DHT22;8501;49.926;8.404;2022-12-11T05:31:58;-0.30;99.90
16767;DHT22;8501;49.926;8.404;2022-12-11T05:34:24;-0.30;99.90
16767;DHT22;8501;49.926;8.404;2022-12-11T05:36:49;-0.30;99.90
16767;DHT22;8501;49.926;8.404;2022-12-11T05:39:15;-0.30;99.90
16767;DHT22;8501;49.926;8.404;2022-12-11T05:41:40;-0.30;99.90
16767;DHT22;8501;49.926;8.404;2022-12-11T05:44:06;-0.30;99.90
16767;DHT22;8501;49.926;8.404;2022-12-11T05:46:32;-0.20;99.90
16767;DHT22;8501;49.926;8.404;2022-12-11T05:48:59;-0.20;99.90
16767;DHT22;8501;49.926;8.404;2022-12-11T05:51:27;-0.20;99.90
16767;DHT22;8501;49.926;8.404;2022-12-11T05:53:53;-0.20;99.90
16767;DHT22;8501;49.926;8.404;2022-12-11T05:56:31;-0.30;99.90
16767;DHT22;8501;49.926;8.404;2022-12-11T05:58:57;-0.30;99.90
16767;DHT22;8501;49.926;8.404;2022-12-11T06:01:29;-0.20;99.90
16767;DHT22;8501;49.926;8.404;2022-12-11T06:03:56;-0.30;99.90
16767;DHT22;8501;49.926;8.404;2022-12-11T06:06:22;-0.30;99.90
16767;DHT22;8501;49.926;8.404;2022-12-11T06:08:52;-0.20;99.90
16767;DHT22;8501;49.926;8.404;2022-12-11T06:11:18;-0.20;99.90
16767;DHT22;8501;49.926;8.404;2022-12-11T06:13:44;-0.30;99.90
16767;DHT22;8501;49.926;8.404;2022-12-11T06:16:10;-0.30;99.90
16767;DHT22;8501;49.926;8.404;2022-12-11T06:18:37;-0.20;99.90
16767;DHT22;8501;49.926;8.404;2022-12-11T06:24:05;-0.20;99.90
16767;DHT22;8501;49.926;8.404;2022-12-11T06:26:31;-0.20;99.90
16767;DHT22;8501;49.926;8.404;2022-12-11T06:28:57;-0.30;99.90
16767;DHT22;8501;49.926;8.404;2022-12-11T06:31:22;-0.20;99.90
16767;DHT22;8501;49.926;8.404;2022-12-11T06:33:48;-0.20;99.90
16767;DHT22;8501;49.926;8.404;2022-12-11T06:36:19;-0.20;99.90
16767;DHT22;8501;49.926;8.404;2022-12-11T06:38:45;-0.20;99.90
16767;DHT22;8501;49.926;8.404;2022-12-11T06:41:12;-0.30;99.90
16767;DHT22;8501;49.926;8.404;2022-12-11T06:43:39;-0.30;99.90
16767;DHT22;8501;49.926;8.404;2022-12-11T06:46:08;-0.30;99.90
16767;DHT22;8501;49.926;8.404;2022-12-11T06:48:34;-0.30;99.90
16767;DHT22;8501;49.926;8.404;2022-12-11T06:51:10;-0.30;99.90
16767;DHT22;8501;49.926;8.404;2022-12-11T06:53:37;-0.20;99.90
16767;DHT22;8501;49.926;8.404;2022-12-11T06:56:08;-0.20;99.90
16767;DHT22;8501;49.926;8.404;2022-12-11T06:58:36;-0.30;99.90
16767;DHT22;8501;49.926;8.404;2022-12-11T07:01:02;-0.30;99.90
16767;DHT22;8501;49.926;8.404;2022-12-11T07:03:28;-0.30;99.90
16767;DHT22;8501;49.926;8.404;2022-12-11T07:06:00;-0.30;99.90
16767;DHT22;8501;49.926;8.404;2022-12-11T07:08:27;-0.30;99.90
16767;DHT22;8501;49.926;8.404;2022-12-11T07:10:53;-0.20;99.90
16767;DHT22;8501;49.926;8.404;2022-12-11T07:13:18;-0.20;99.90
16767;DHT22;8501;49.926;8.404;2022-12-11T07:15:44;-0.20;99.90
16767;DHT22;8501;49.926;8.404;2022-12-11T07:18:09;-0.10;99.90
16767;DHT22;8501;49.926;8.404;2022-12-11T07:20:35;-0.10;99.90
16767;DHT22;8501;49.926;8.404;2022-12-11T07:23:00;-0.20;99.90
16767;DHT22;8501;49.926;8.404;2022-12-11T07:25:26;-0.10;99.90
16767;DHT22;8501;49.926;8.404;2022-12-11T07:27:51;-0.10;99.90
16767;DHT22;8501;49.926;8.404;2022-12-11T07:30:17;-0.10;99.90
16767;DHT22;8501;49.926;8.404;2022-12-11T07:32:43;-0.10;99.90
16767;DHT22;8501;49.926;8.404;2022-12-11T07:35:08;-0.20;99.90
16767;DHT22;8501;49.926;8.404;2022-12-11T07:37:34;-0.20;99.90
16767;DHT22;8501;49.926;8.404;2022-12-11T07:40:00;-0.20;99.90
16767;DHT22;8501;49.926;8.404;2022-12-11T07:42:25;-0.20;99.90
16767;DHT22;8501;49.926;8.404;2022-12-11T07:44:51;-0.10;99.90
16767;DHT22;8501;49.926;8.404;2022-12-11T07:47:16;-0.10;99.90
16767;DHT22;8501;49.926;8.404;2022-12-11T07:49:42;-0.10;99.90
16767;DHT22;8501;49.926;8.404;2022-12-11T07:52:07;-0.10;99.90
16767;DHT22;8501;49.926;8.404;2022-12-11T07:54:33;-0.10;99.90
16767;DHT22;8501;49.926;8.404;2022-12-11T07:56:58;0.00;99.90
16767;DHT22;8501;49.926;8.404;2022-12-11T07:59:24;-0.10;99.90
16767;DHT22;8501;49.926;8.404;2022-12-11T08:01:49;-0.10;99.90
16767;DHT22;8501;49.926;8.404;2022-12-11T08:04:15;-0.10;99.90
16767;DHT22;8501;49.926;8.404;2022-12-11T08:06:41;0.00;99.90
16767;DHT22;8501;49.926;8.404;2022-12-11T08:09:09;0.00;99.90
16767;DHT22;8501;49.926;8.404;2022-12-11T08:11:35;0.00;99.90
16767;DHT22;8501;49.926;8.404;2022-12-11T08:14:01;-0.10;99.90
16767;DHT22;8501;49.926;8.404;2022-12-11T08:16:27;-0.10;99.90
16767;DHT22;8501;49.926;8.404;2022-12-11T08:18:53;-0.10;99.90
16767;DHT22;8501;49.926;8.404;2022-12-11T08:21:26;0.00;99.90
16767;DHT22;8501;49.926;8.404;2022-12-11T08:23:52;0.00;99.90
16767;DHT22;8501;49.926;8.404;2022-12-11T08:26:27;-0.10;99.90
16767;DHT22;8501;49.926;8.404;2022-12-11T08:28:53;-0.10;99.90
16767;DHT22;8501;49.926;8.404;2022-12-11T08:31:19;-0.10;99.90
16767;DHT22;8501;49.926;8.404;2022-12-11T08:33:46;-0.10;99.90
16767;DHT22;8501;49.926;8.404;2022-12-11T08:36:18;-0.10;99.90
16767;DHT22;8501;49.926;8.404;2022-12-11T08:38:44;-0.10;99.90
16767;DHT22;8501;49.926;8.404;2022-12-11T08:43:37;-0.10;99.90
16767;DHT22;8501;49.926;8.404;2022-12-11T08:46:03;0.00;99.90
16767;DHT22;8501;49.926;8.404;2022-12-11T08:48:29;0.00;99.90
16767;DHT22;8501;49.926;8.404;2022-12-11T08:51:01;0.00;99.90
16767;DHT22;8501;49.926;8.404;2022-12-11T08:53:28;-0.10;99.90
16767;DHT22;8501;49.926;8.404;2022-12-11T08:56:03;0.00;99.90
16767;DHT22;8501;49.926;8.404;2022-12-11T08:58:29;-0.10;99.90
16767;DHT22;8501;49.926;8.404;2022-12-11T09:00:55;0.00;99.90
16767;DHT22;8501;49.926;8.404;2022-12-11T09:03:20;0.00;99.90
16767;DHT22;8501;49.926;8.404;2022-12-11T09:05:46;0.00;99.90
16767;DHT22;8501;49.926;8.404;2022-12-11T09:08:11;0.00;99.90
16767;DHT22;8501;49.926;8.404;2022-12-11T09:10:37;0.10;99.90
16767;DHT22;8501;49.926;8.404;2022-12-11T09:13:03;0.10;99.90
16767;DHT22;8501;49.926;8.404;2022-12-11T09:15:29;0.10;99.90
16767;DHT22;8501;49.926;8.404;2022-12-11T09:17:54;0.10;99.90
16767;DHT22;8501;49.926;8.404;2022-12-11T09:20:20;0.10;99.90
16767;DHT22;8501;49.926;8.404;2022-12-11T09:22:46;0.10;99.90
16767;DHT22;8501;49.926;8.404;2022-12-11T09:25:11;0.20;99.90
16767;DHT22;8501;49.926;8.404;2022-12-11T09:27:37;0.20;99.90
16767;DHT22;8501;49.926;8.404;2022-12-11T09:30:03;0.20;99.90
16767;DHT22;8501;49.926;8.404;2022-12-11T09:32:29;0.20;99.90
16767;DHT22;8501;49.926;8.404;2022-12-11T09:34:55;0.20;99.90
16767;DHT22;8501;49.926;8.404;2022-12-11T09:37:20;0.20;99.90
16767;DHT22;8501;49.926;8.404;2022-12-11T09:39:46;0.30;99.90
16767;DHT22;8501;49.926;8.404;2022-12-11T09:42:29;0.30;99.90
16767;DHT22;8501;49.926;8.404;2022-12-11T09:45:00;0.30;99.90
16767;DHT22;8501;49.926;8.404;2022-12-11T09:55:15;0.30;99.90
16767;DHT22;8501;49.926;8.404;2022-12-11T10:00:47;0.30;99.90
16767;DHT22;8501;49.926;8.404;2022-12-11T10:06:26;0.30;99.90
16767;DHT22;8501;49.926;8.404;2022-12-11T10:09:10;0.30;99.90
16767;DHT22;8501;49.926;8.404;2022-12-11T10:12:03;0.30;99.90
16767;DHT22;8501;49.926;8.404;2022-12-11T10:17:36;0.40;99.90
16767;DHT22;8501;49.926;8.404;2022-12-11T10:20:24;0.30;99.90
16767;DHT22;8501;49.926;8.404;2022-12-11T10:22:51;0.30;99.90
16767;DHT22;8501;49.926;8.404;2022-12-11T10:25:31;0.30;99.90
16767;DHT22;8501;49.926;8.404;2022-12-11T10:28:07;0.50;99.90
16767;DHT22;8501;49.926;8.404;2022-12-11T10:30:36;0.40;99.90
16767;DHT22;8501;49.926;8.404;2022-12-11T10:38:11;0.40;99.90
16767;DHT22;8501;49.926;8.404;2022-12-11T10:40:40;0.70;99.90
16767;DHT22;8501;49.926;8.404;2022-12-11T10:43:07;0.50;99.90
16767;DHT22;8501;49.926;8.404;2022-12-11T10:45:33;0.50;99.90
16767;DHT22;8501;49.926;8.404;2022-12-11T10:48:08;0.50;99.90
16767;DHT22;8501;49.926;8.404;2022-12-11T10:50:34;0.40;99.90
16767;DHT22;8501;49.926;8.404;2022-12-11T10:53:00;0.40;99.90
16767;DHT22;8501;49.926;8.404;2022-12-11T10:55:44;0.50;99.90
16767;DHT22;8501;49.926;8.404;2022-12-11T10:58:17;0.50;99.90
16767;DHT22;8501;49.926;8.404;2022-12-11T11:00:44;0.50;99.90
16767;DHT22;8501;49.926;8.404;2022-12-11T11:03:26;0.50;99.90
16767;DHT22;8501;49.926;8.404;2022-12-11T11:06:25;0.50;99.90
16767;DHT22;8501;49.926;8.404;2022-12-11T11:08:53;0.60;99.90
16767;DHT22;8501;49.926;8.404;2022-12-11T11:11:32;0.60;99.90
16767;DHT22;8501;49.926;8.404;2022-12-11T11:16:41;0.60;99.90
16767;DHT22;8501;49.926;8.404;2022-12-11T11:19:32;0.50;99.90
16767;DHT22;8501;49.926;8.404;2022-12-11T11:22:03;0.50;99.90
16767;DHT22;8501;49.926;8.404;2022-12-11T11:24:35;0.50;99.90
16767;DHT22;8501;49.926;8.404;2022-12-11T11:27:02;0.50;99.90
16767;DHT22;8501;49.926;8.404;2022-12-11T11:29:33;0.50;99.90
16767;DHT22;8501;49.926;8.404;2022-12-11T11:32:16;0.60;99.90
16767;DHT22;8501;49.926;8.404;2022-12-11T11:34:44;0.50;99.90
16767;DHT22;8501;49.926;8.404;2022-12-11T11:37:31;0.60;99.90
16767;DHT22;8501;49.926;8.404;2022-12-11T11:40:24;0.50;99.90
16767;DHT22;8501;49.926;8.404;2022-12-11T11:43:53;0.50;99.90
16767;DHT22;8501;49.926;8.404;2022-12-11T11:46:00;0.50;99.90
16767;DHT22;8501;49.926;8.404;2022-12-11T11:51:14;0.50;99.90
16767;DHT22;8501;49.926;8.404;2022-12-11T11:53:44;0.50;99.90
16767;DHT22;8501;49.926;8.404;2022-12-11T11:56:29;0.60;99.90
16767;DHT22;8501;49.926;8.404;2022-12-11T11:59:07;0.60;99.90
16767;DHT22;8501;49.926;8.404;2022-12-11T12:01:36;0.60;99.90
16767;DHT22;8501;49.926;8.404;2022-12-11T12:04:03;0.60;99.90
16767;DHT22;8501;49.926;8.404;2022-12-11T12:09:54;0.70;99.90
16767;DHT22;8501;49.926;8.404;2022-12-11T12:13:05;0.60;99.90
16767;DHT22;8501;49.926;8.404;2022-12-11T12:18:18;0.70;99.90
16767;DHT22;8501;49.926;8.404;2022-12-11T12:21:08;0.70;99.90
16767;DHT22;8501;49.926;8.404;2022-12-11T12:26:30;0.70;99.90
16767;DHT22;8501;49.926;8.404;2022-12-11T12:29:09;0.70;99.90
16767;DHT22;8501;49.926;8.404;2022-12-11T12:32:18;0.70;99.90
16767;DHT22;8501;49.926;8.404;2022-12-11T12:45:58;0.70;99.90
16767;DHT22;8501;49.926;8.404;2022-12-11T12:48:28;0.70;99.90
16767;DHT22;8501;49.926;8.404;2022-12-11T12:50:54;0.70;99.90
16767;DHT22;8501;49.926;8.404;2022-12-11T12:53:26;0.70;99.90
16767;DHT22;8501;49.926;8.404;2022-12-11T12:55:53;0.80;99.90
16767;DHT22;8501;49.926;8.404;2022-12-11T13:01:16;0.70;99.90
16767;DHT22;8501;49.926;8.404;2022-12-11T13:04:03;0.70;99.90
16767;DHT22;8501;49.926;8.404;2022-12-11T13:06:36;0.70;99.90
16767;DHT22;8501;49.926;8.404;2022-12-11T13:09:18;0.80;99.90
16767;DHT22;8501;49.926;8.404;2022-12-11T13:11:46;0.80;99.90
16767;DHT22;8501;49.926;8.404;2022-12-11T13:16:45;0.80;99.90
16767;DHT22;8501;49.926;8.404;2022-12-11T13:24:58;0.80;99.90
16767;DHT22;8501;49.926;8.404;2022-12-11T13:33:16;0.80;99.90
16767;DHT22;8501;49.926;8.404;2022-12-11T13:35:43;0.80;99.90
16767;DHT22;8501;49.926;8.404;2022-12-11T13:38:17;0.80;99.90
16767;DHT22;8501;49.926;8.404;2022-12-11T13:40:45;0.70;99.90
16767;DHT22;8501;49.926;8.404;2022-12-11T13:43:17;0.80;99.90
16767;DHT22;8501;49.926;8.404;2022-12-11T13:45:53;0.80;99.90
16767;DHT22;8501;49.926;8.404;2022-12-11T13:48:27;0.80;99.90
16767;DHT22;8501;49.926;8.404;2022-12-11T13:50:54;0.80;99.90
16767;DHT22;8501;49.926;8.404;2022-12-11T13:53:20;0.80;99.90
16767;DHT22;8501;49.926;8.404;2022-12-11T13:55:57;0.90;99.90
16767;DHT22;8501;49.926;8.404;2022-12-11T13:58:24;0.70;99.90
16767;DHT22;8501;49.926;8.404;2022-12-11T14:01:20;0.80;99.90
16767;DHT22;8501;49.926;8.404;2022-12-11T14:03:52;0.80;99.90
16767;DHT22;8501;49.926;8.404;2022-12-11T14:06:19;0.80;99.90
16767;DHT22;8501;49.926;8.404;2022-12-11T14:08:47;0.80;99.90
16767;DHT22;8501;49.926;8.404;2022-12-11T14:11:21;0.80;99.90
16767;DHT22;8501;49.926;8.404;2022-12-11T14:13:48;0.80;99.90
16767;DHT22;8501;49.926;8.404;2022-12-11T14:16:22;0.80;99.90
16767;DHT22;8501;49.926;8.404;2022-12-11T14:18:50;0.80;99.90
16767;DHT22;8501;49.926;8.404;2022-12-11T14:21:20;0.80;99.90
16767;DHT22;8501;49.926;8.404;2022-12-11T14:23:58;0.80;99.90
16767;DHT22;8501;49.926;8.404;2022-12-11T14:26:27;0.70;99.90
16767;DHT22;8501;49.926;8.404;2022-12-11T14:28:53;0.80;99.90
16767;DHT22;8501;49.926;8.404;2022-12-11T14:31:29;0.80;99.90
16767;DHT22;8501;49.926;8.404;2022-12-11T14:34:03;0.80;99.90
16767;DHT22;8501;49.926;8.404;2022-12-11T14:36:30;0.90;99.90
16767;DHT22;8501;49.926;8.404;2022-12-11T14:39:02;0.90;99.90
16767;DHT22;8501;49.926;8.404;2022-12-11T14:44:06;0.90;99.90
16767;DHT22;8501;49.926;8.404;2022-12-11T14:46:49;0.80;99.90
16767;DHT22;8501;49.926;8.404;2022-12-11T14:51:57;0.90;99.90
16767;DHT22;8501;49.926;8.404;2022-12-11T14:54:34;0.90;99.90
16767;DHT22;8501;49.926;8.404;2022-12-11T14:57:02;0.80;99.90
16767;DHT22;8501;49.926;8.404;2022-12-11T14:59:34;0.80;99.90
16767;DHT22;8501;49.926;8.404;2022-12-11T15:02:22;0.80;99.90
16767;DHT22;8501;49.926;8.404;2022-12-11T15:05:10;0.80;99.90
16767;DHT22;8501;49.926;8.404;2022-12-11T15:07:37;0.80;99.90
16767;DHT22;8501;49.926;8.404;2022-12-11T15:10:03;1.10;99.90
16767;DHT22;8501;49.926;8.404;2022-12-11T15:12:29;0.80;99.90
16767;DHT22;8501;49.926;8.404;2022-12-11T15:15:02;0.80;99.90
16767;DHT22;8501;49.926;8.404;2022-12-11T15:17:29;0.80;99.90
16767;DHT22;8501;49.926;8.404;2022-12-11T15:20:05;1.00;99.90
16767;DHT22;8501;49.926;8.404;2022-12-11T15:22:34;0.80;99.90
16767;DHT22;8501;49.926;8.404;2022-12-11T15:25:00;0.80;99.90
16767;DHT22;8501;49.926;8.404;2022-12-11T15:27:37;0.80;99.90
16767;DHT22;8501;49.926;8.404;2022-12-11T15:32:46;0.80;99.90
16767;DHT22;8501;49.926;8.404;2022-12-11T15:35:25;0.70;99.90
16767;DHT22;8501;49.926;8.404;2022-12-11T15:37:56;0.80;99.90
16767;DHT22;8501;49.926;8.404;2022-12-11T15:40:22;0.80;99.90
16767;DHT22;8501;49.926;8.404;2022-12-11T15:42:48;0.80;99.90
16767;DHT22;8501;49.926;8.404;2022-12-11T15:45:16;0.80;99.90
16767;DHT22;8501;49.926;8.404;2022-12-11T15:47:43;0.80;99.90
16767;DHT22;8501;49.926;8.404;2022-12-11T15:50:15;0.80;99.90
16767;DHT22;8501;49.926;8.404;2022-12-11T15:52:41;0.80;99.90
16767;DHT22;8501;49.926;8.404;2022-12-11T15:55:08;0.80;99.90
16767;DHT22;8501;49.926;8.404;2022-12-11T15:57:33;0.80;99.90
16767;DHT22;8501;49.926;8.404;2022-12-11T15:59:59;0.80;99.90
16767;DHT22;8501;49.926;8.404;2022-12-11T16:02:25;0.80;99.90
16767;DHT22;8501;49.926;8.404;2022-12-11T16:04:52;0.80;99.90
16767;DHT22;8501;49.926;8.404;2022-12-11T16:07:20;0.80;99.90
16767;DHT22;8501;49.926;8.404;2022-12-11T16:09:46;0.80;99.90
16767;DHT22;8501;49.926;8.404;2022-12-11T16:12:12;0.80;99.90
16767;DHT22;8501;49.926;8.404;2022-12-11T16:14:40;0.70;99.90
16767;DHT22;8501;49.926;8.404;2022-12-11T16:17:07;0.70;99.90
16767;DHT22;8501;49.926;8.404;2022-12-11T16:19:33;0.80;99.90
16767;DHT22;8501;49.926;8.404;2022-12-11T16:21:59;0.80;99.90
16767;DHT22;8501;49.926;8.404;2022-12-11T16:24:25;0.80;99.90
16767;DHT22;8501;49.926;8.404;2022-12-11T16:26:51;0.70;99.90
16767;DHT22;8501;49.926;8.404;2022-12-11T16:29:16;0.70;99.90
16767;DHT22;8501;49.926;8.404;2022-12-11T16:31:42;0.70;99.90
16767;DHT22;8501;49.926;8.404;2022-12-11T16:34:08;0.70;99.90
16767;DHT22;8501;49.926;8.404;2022-12-11T16:36:33;0.80;99.90
16767;DHT22;8501;49.926;8.404;2022-12-11T16:38:59;0.70;99.90
16767;DHT22;8501;49.926;8.404;2022-12-11T16:41:25;0.80;99.90
16767;DHT22;8501;49.926;8.404;2022-12-11T16:43:50;0.80;99.90
16767;DHT22;8501;49.926;8.404;2022-12-11T16:46:21;0.80;99.90
16767;DHT22;8501;49.926;8.404;2022-12-11T16:48:47;0.80;99.90
16767;DHT22;8501;49.926;8.404;2022-12-11T16:51:13;0.80;99.90
16767;DHT22;8501;49.926;8.404;2022-12-11T16:53:39;0.80;99.90
16767;DHT22;8501;49.926;8.404;2022-12-11T16:56:05;0.80;99.90
16767;DHT22;8501;49.926;8.404;2022-12-11T16:58:31;0.70;99.90
16767;DHT22;8501;49.926;8.404;2022-12-11T17:00:57;0.70;99.90
16767;DHT22;8501;49.926;8.404;2022-12-11T17:03:30;0.70;99.90
16767;DHT22;8501;49.926;8.404;2022-12-11T17:05:56;0.70;99.90
16767;DHT22;8501;49.926;8.404;2022-12-11T17:08:22;0.70;99.90
16767;DHT22;8501;49.926;8.404;2022-12-11T17:10:49;0.70;99.90
16767;DHT22;8501;49.926;8.404;2022-12-11T17:13:14;0.70;99.90
16767;DHT22;8501;49.926;8.404;2022-12-11T17:15:41;0.70;99.90
16767;DHT22;8501;49.926;8.404;2022-12-11T17:18:08;0.70;99.90
16767;DHT22;8501;49.926;8.404;2022-12-11T17:20:38;0.80;99.90
16767;DHT22;8501;49.926;8.404;2022-12-11T17:23:03;0.70;99.90
16767;DHT22;8501;49.926;8.404;2022-12-11T17:25:29;0.80;99.90
16767;DHT22;8501;49.926;8.404;2022-12-11T17:27:54;0.80;99.90
16767;DHT22;8501;49.926;8.404;2022-12-11T17:30:20;0.80;99.90
16767;DHT22;8501;49.926;8.404;2022-12-11T17:32:47;0.80;99.90